CheckWX is a tool to help pilots better visualize weather data.  It is not intended as a substitute for an official pre-flight weather briefing.

08:38:40 UTC

KHOP METAR
Campbell AAF (Fort Campbell) Airport
Fort Campbell/Hopkinsville, Kentucky, USA
Current

43 mins ago

KHOP 190756Z AUTO 25011KT 10SM RA BKN042 21/21 A2987 RMK AO2 DZB30E42RAB42 SLP112 P0001 T02090209
Observed
May-19 @ 07:56 UTC
Wind
  • 250° at 11 KTS
Visibility
10 SM
Flight Rules
VFR
Conditions
Rain
Cloud Levels
  • Broken at 4,200' AGL
Temperature
21°C / 70°F
Dewpoint
21°C / 70°F
Humidity
100%
Altimeter
29.87" Hg
Pressure
1011.52 hPa
Current Rain
0.01"
Previous

1 hour ago

KHOP 190730Z AUTO 23011KT 10SM -DZ BKN120 23/16 A2986 RMK AO2 DZB30 SLP108
Observed
May-19 @ 07:30 UTC
Wind
  • 230° at 11 KTS
Visibility
10 SM
Flight Rules
VFR
Conditions
Light Drizzle
Cloud Levels
  • Broken at 12,000' AGL
Temperature
23°C / 73°F
Dewpoint
16°C / 61°F
Humidity
65%
Altimeter
29.86" Hg
Pressure
1011.22 hPa
Previous

2 hours ago

KHOP 190656Z AUTO 19015G22KT 10SM FEW060 25/16 A2984 RMK AO2 SLP101 T02490158
Observed
May-19 @ 06:56 UTC
Wind
  • 190° at 15 KTS
  • Gusting to 22 KTS
Visibility
10 SM
Flight Rules
VFR
Cloud Levels
  • Few at 6,000' AGL
Temperature
25°C / 77°F
Dewpoint
16°C / 61°F
Humidity
57%
Altimeter
29.84" Hg
Pressure
1010.52 hPa